Auburn, KS

2:06 AM CDT on August 26, 2016 (GMT -0500)
South Pointe Bay Estates | | Change Station
Active Advisory: Flash Flood Watch Active Notice: Local Storm Report

Elev 1096 ft 38.95 °N, 95.80 °W | Updated 8 minutes ago

Mostly Cloudy
Mostly Cloudy
67.7 °F
Feels Like 67.7 °F
N
0.0
Wind Variable Wind from NW
Gusts 0.0 mph

Today
High -- | Low -- °F
--% Chance of Precip.
Yesterday
High -- | Low -- °F
Precip. -- in
Pressure 30.06 in
Visibility 10.0 miles
Clouds Scattered Clouds 2600 ft
Mostly Cloudy 3200 ft
Mostly Cloudy 4400 ft
Dew Point 65 °F
Humidity 91%
Rainfall 0.00 in
Snow Depth Not available.
6:47 AM 8:01 PM
Last Quarter, 37% visible
METAR KFOE 260653Z AUTO 04005KT 10SM SCT026 BKN032 BKN044 21/18 A3009 RMK AO2 LTG DSNT SE AND S SLP179 T02110183
Pressure 30.06 in
Visibility 10.0 miles
Clouds Scattered Clouds 2600 ft
Mostly Cloudy 3200 ft
Mostly Cloudy 4400 ft
Dew Point 65 °F
Humidity 91%
Rainfall 0.00 in
Snow Depth Not available.
6:47 AM 8:01 PM
Last Quarter, 37% visible
METAR KFOE 260653Z AUTO 04005KT 10SM SCT026 BKN032 BKN044 21/18 A3009 RMK AO2 LTG DSNT SE AND S SLP179 T02110183

10-Day Weather Forecast

Almanac

Astronomy

Aug. 26, 2016 Rise Set
Actual Time
Civil Twilight
Nautical Twilight
Astronomical Twilight
Moon
Length of Visible Light
Length of Day
Tomorrow will be .
, % of the Moon is Illuminated

Today's Extremes

State Highs State Lows

Community

WunderPhotos

Upload Photos

1,935,063 photos uploaded!

WunderBlog® & News

Nearby

Air Quality

  Air Quality AQ Index Pollutant
Not available.

Snow Depth

Station Depth Elevation

Earthquake Activity

City Distance Mag. Time & Date
Minimum magnitude displayed is 2.5.

Coastal Water Temperatures

Place Temperature

Stations

Nearby Weather Stations

Station Location Temp. Windchill Dew Point Humidity Wind Precip. Elev Updated Type
                   

Watches & Warnings

Flash Flood Watch
Issued: 10:14 PM CDT Aug. 25, 2016 – National Weather Service

... Flash Flood Watch remains in effect until 7 am CDT Friday...

The Flash Flood Watch continues for

* portions of east central Kansas and northeast Kansas...
including the following areas... in east central Kansas...
Anderson... Coffey... Douglas... Franklin... Lyon... Morris...
Osage... Shawnee and Wabaunsee. In northeast Kansas...
Jefferson.

* Until 7 am CDT Friday

* scattered thunderstorms are expected tonight across east central
Kansas... extending into Friday morning. Some of these locations
already received 1 to 2 inches of rain Wednesday night and the
ground is nearly saturated. An additional 1 to 2 inches of
rainfall will be possible tonight... especially after midnight.
This additional rain could result in flash flooding.

Precautionary/preparedness actions...

A Flash Flood Watch means that conditions may develop that lead
to flash flooding. Flash flooding is a very dangerous situation.

You should monitor later forecasts and be prepared to take action
should flash flood warnings be issued.